sensor_id;sensor_type;location;lat;lon;timestamp;pressure;altitude;pressure_sealevel;temperature;humidity
24013;BME280;12220;50.194;18.948;2023-06-10T00:00:48;101581.91;;;17.77;81.45
24013;BME280;12220;50.194;18.948;2023-06-10T00:02:56;101579.28;;;17.76;81.47
24013;BME280;12220;50.194;18.948;2023-06-10T00:04:58;101572.87;;;17.75;81.48
24013;BME280;12220;50.194;18.948;2023-06-10T00:06:59;101581.19;;;17.75;81.51
24013;BME280;12220;50.194;18.948;2023-06-10T00:09:03;101572.11;;;17.73;81.56
24013;BME280;12220;50.194;18.948;2023-06-10T00:11:06;101578.68;;;17.72;81.65
24013;BME280;12220;50.194;18.948;2023-06-10T00:13:12;101570.38;;;17.72;81.69
24013;BME280;12220;50.194;18.948;2023-06-10T00:15:14;101576.92;;;17.71;81.73
24013;BME280;12220;50.194;18.948;2023-06-10T00:17:16;101578.68;;;17.72;81.82
24013;BME280;12220;50.194;18.948;2023-06-10T00:19:20;101578.68;;;17.72;81.87
24013;BME280;12220;50.194;18.948;2023-06-10T00:21:28;101579.42;;;17.74;81.87
24013;BME280;12220;50.194;18.948;2023-06-10T00:23:49;101582.19;;;17.74;81.80
24013;BME280;12220;50.194;18.948;2023-06-10T00:25:54;101579.42;;;17.74;81.73
24013;BME280;12220;50.194;18.948;2023-06-10T00:27:55;101585.96;;;17.73;81.79
24013;BME280;12220;50.194;18.948;2023-06-10T00:29:58;101583.19;;;17.73;81.89
24013;BME280;12220;50.194;18.948;2023-06-10T00:32:04;101587.73;;;17.74;81.94
24013;BME280;12220;50.194;18.948;2023-06-10T00:34:08;101590.50;;;17.74;81.97
24013;BME280;12220;50.194;18.948;2023-06-10T00:36:10;101587.59;;;17.76;81.99
24013;BME280;12220;50.194;18.948;2023-06-10T00:38:13;101590.23;;;17.77;81.99
24013;BME280;12220;50.194;18.948;2023-06-10T00:40:18;101596.39;;;17.81;81.97
24013;BME280;12220;50.194;18.948;2023-06-10T00:42:20;101597.26;;;17.82;81.92
24013;BME280;12220;50.194;18.948;2023-06-10T00:44:24;101590.72;;;17.83;81.92
24013;BME280;12220;50.194;18.948;2023-06-10T00:46:26;101588.81;;;17.83;81.89
24013;BME280;12220;50.194;18.948;2023-06-10T00:48:33;101588.81;;;17.83;81.80
24013;BME280;12220;50.194;18.948;2023-06-10T00:50:35;101591.59;;;17.83;81.79
24013;BME280;12220;50.194;18.948;2023-06-10T00:52:40;101600.63;;;17.85;81.77
24013;BME280;12220;50.194;18.948;2023-06-10T00:54:47;101603.39;;;17.85;81.75
24013;BME280;12220;50.194;18.948;2023-06-10T00:56:49;101600.63;;;17.85;81.71
24013;BME280;12220;50.194;18.948;2023-06-10T00:58:50;101607.21;;;17.84;81.65
24013;BME280;12220;50.194;18.948;2023-06-10T01:00:52;101612.61;;;17.86;81.61
24013;BME280;12220;50.194;18.948;2023-06-10T01:02:54;101606.16;;;17.85;81.55
24013;BME280;12220;50.194;18.948;2023-06-10T01:05:03;101606.16;;;17.85;81.52
24013;BME280;12220;50.194;18.948;2023-06-10T01:07:15;101605.30;;;17.85;81.52
24013;BME280;12220;50.194;18.948;2023-06-10T01:11:34;101606.16;;;17.85;81.47
24013;BME280;12220;50.194;18.948;2023-06-10T01:13:38;101604.43;;;17.84;81.49
24013;BME280;12220;50.194;18.948;2023-06-10T01:15:43;101610.84;;;17.85;81.46
24013;BME280;12220;50.194;18.948;2023-06-10T01:19:59;101486.82;;;17.14;81.38
24013;BME280;12220;50.194;18.948;2023-06-10T01:22:00;101600.04;;;17.82;81.44
24013;BME280;12220;50.194;18.948;2023-06-10T01:24:05;101609.35;;;17.81;81.44
24013;BME280;12220;50.194;18.948;2023-06-10T01:26:10;101609.48;;;17.79;81.57
24013;BME280;12220;50.194;18.948;2023-06-10T01:28:22;101608.75;;;17.77;81.60
24013;BME280;12220;50.194;18.948;2023-06-10T01:30:28;101604.08;;;17.77;81.65
24013;BME280;12220;50.194;18.948;2023-06-10T01:32:37;101602.31;;;17.76;81.69
24013;BME280;12220;50.194;18.948;2023-06-10T01:34:42;101603.21;;;17.77;81.73
24013;BME280;12220;50.194;18.948;2023-06-10T01:36:47;101594.90;;;17.77;81.74
24013;BME280;12220;50.194;18.948;2023-06-10T01:38:50;101600.44;;;17.77;81.75
24013;BME280;12220;50.194;18.948;2023-06-10T01:40:55;101604.84;;;17.80;81.76
24013;BME280;12220;50.194;18.948;2023-06-10T01:42:57;101605.70;;;17.80;81.77
24013;BME280;12220;50.194;18.948;2023-06-10T01:44:59;101603.80;;;17.81;81.80
24013;BME280;12220;50.194;18.948;2023-06-10T01:47:01;101601.04;;;17.81;81.77
24013;BME280;12220;50.194;18.948;2023-06-10T01:49:02;101605.58;;;17.82;81.81
24013;BME280;12220;50.194;18.948;2023-06-10T01:51:11;101609.08;;;17.84;81.84
24013;BME280;12220;50.194;18.948;2023-06-10T01:53:15;101607.34;;;17.83;81.92
24013;BME280;12220;50.194;18.948;2023-06-10T01:55:17;101605.30;;;17.85;82.00
24013;BME280;12220;50.194;18.948;2023-06-10T01:57:19;101616.25;;;17.86;81.95
24013;BME280;12220;50.194;18.948;2023-06-10T01:59:26;101610.56;;;17.88;81.93
24013;BME280;12220;50.194;18.948;2023-06-10T02:01:28;101608.84;;;17.87;81.92
24013;BME280;12220;50.194;18.948;2023-06-10T02:03:30;101613.35;;;17.88;81.90
24013;BME280;12220;50.194;18.948;2023-06-10T02:05:33;101615.11;;;17.89;81.85
24013;BME280;12220;50.194;18.948;2023-06-10T02:07:41;101623.42;;;17.89;81.77
24013;BME280;12220;50.194;18.948;2023-06-10T02:09:42;101609.56;;;17.89;81.79
24013;BME280;12220;50.194;18.948;2023-06-10T02:11:44;101617.01;;;17.88;81.75
24013;BME280;12220;50.194;18.948;2023-06-10T02:13:45;101616.91;;;17.90;81.71
24013;BME280;12220;50.194;18.948;2023-06-10T02:15:56;101631.73;;;17.89;81.46
24013;BME280;12220;50.194;18.948;2023-06-10T02:17:59;101624.55;;;17.86;81.56
24013;BME280;12220;50.194;18.948;2023-06-10T02:20:01;101625.70;;;17.84;81.52
24013;BME280;12220;50.194;18.948;2023-06-10T02:22:08;101620.43;;;17.81;81.59
24013;BME280;12220;50.194;18.948;2023-06-10T02:24:11;101622.60;;;17.77;81.48
24013;BME280;12220;50.194;18.948;2023-06-10T02:26:12;101627.52;;;17.73;81.53
24013;BME280;12220;50.194;18.948;2023-06-10T02:28:13;101628.68;;;17.71;81.60
24013;BME280;12220;50.194;18.948;2023-06-10T02:30:15;101632.73;;;17.67;81.67
24013;BME280;12220;50.194;18.948;2023-06-10T02:32:25;101633.86;;;17.64;81.83
24013;BME280;12220;50.194;18.948;2023-06-10T02:34:29;101639.53;;;17.63;81.90
24013;BME280;12220;50.194;18.948;2023-06-10T02:36:30;101638.80;;;17.60;81.99
24013;BME280;12220;50.194;18.948;2023-06-10T02:38:32;101637.16;;;17.58;82.09
24013;BME280;12220;50.194;18.948;2023-06-10T02:40:40;101640.94;;;17.57;82.19
24013;BME280;12220;50.194;18.948;2023-06-10T02:42:42;101631.89;;;17.55;82.27
24013;BME280;12220;50.194;18.948;2023-06-10T02:44:44;101631.89;;;17.55;82.38
24013;BME280;12220;50.194;18.948;2023-06-10T02:46:46;101630.85;;;17.56;82.50
24013;BME280;12220;50.194;18.948;2023-06-10T02:48:55;101636.40;;;17.56;82.62
24013;BME280;12220;50.194;18.948;2023-06-10T02:50:56;101638.02;;;17.58;82.64
24013;BME280;12220;50.194;18.948;2023-06-10T02:52:58;101640.66;;;17.60;82.67
24013;BME280;12220;50.194;18.948;2023-06-10T02:55:00;101635.90;;;17.62;82.61
24013;BME280;12220;50.194;18.948;2023-06-10T02:57:13;101632.09;;;17.63;82.57
24013;BME280;12220;50.194;18.948;2023-06-10T02:59:15;101632.09;;;17.63;82.57
24013;BME280;12220;50.194;18.948;2023-06-10T03:01:16;101634.86;;;17.63;82.51
24013;BME280;12220;50.194;18.948;2023-06-10T03:03:19;101631.23;;;17.63;82.56
24013;BME280;12220;50.194;18.948;2023-06-10T03:05:25;101633.99;;;17.63;82.63
24013;BME280;12220;50.194;18.948;2023-06-10T03:07:26;101632.09;;;17.63;82.67
24013;BME280;12220;50.194;18.948;2023-06-10T03:09:28;101639.53;;;17.63;82.60
24013;BME280;12220;50.194;18.948;2023-06-10T03:11:29;101634.86;;;17.63;82.62
24013;BME280;12220;50.194;18.948;2023-06-10T03:13:40;101636.90;;;17.61;82.68
24013;BME280;12220;50.194;18.948;2023-06-10T03:15:41;101633.27;;;17.60;82.74
24013;BME280;12220;50.194;18.948;2023-06-10T03:17:42;101629.59;;;17.60;82.80
24013;BME280;12220;50.194;18.948;2023-06-10T03:19:47;101637.90;;;17.60;82.82
24013;BME280;12220;50.194;18.948;2023-06-10T03:24:16;101637.02;;;17.59;82.95
24013;BME280;12220;50.194;18.948;2023-06-10T03:26:18;101639.94;;;17.58;82.91
24013;BME280;12220;50.194;18.948;2023-06-10T03:28:22;101642.97;;;17.55;82.97
24013;BME280;12220;50.194;18.948;2023-06-10T03:30:24;101641.34;;;17.52;83.08
24013;BME280;12220;50.194;18.948;2023-06-10T03:32:31;101642.20;;;17.53;83.32
24013;BME280;12220;50.194;18.948;2023-06-10T03:34:33;101647.87;;;17.51;83.47
24013;BME280;12220;50.194;18.948;2023-06-10T03:36:34;101658.81;;;17.53;83.62
24013;BME280;12220;50.194;18.948;2023-06-10T03:38:39;101648.51;;;17.55;83.66
24013;BME280;12220;50.194;18.948;2023-06-10T03:40:46;101657.55;;;17.57;83.68
24013;BME280;12220;50.194;18.948;2023-06-10T03:42:47;101652.02;;;17.57;83.73
24013;BME280;12220;50.194;18.948;2023-06-10T03:44:51;101650.11;;;17.57;83.82
24013;BME280;12220;50.194;18.948;2023-06-10T03:46:54;101661.06;;;17.59;84.01
24013;BME280;12220;50.194;18.948;2023-06-10T03:49:01;101646.21;;;17.60;84.15
24013;BME280;12220;50.194;18.948;2023-06-10T03:51:03;101661.69;;;17.63;84.25
24013;BME280;12220;50.194;18.948;2023-06-10T03:53:05;101352.41;;;15.68;84.12
24013;BME280;12220;50.194;18.948;2023-06-10T03:55:07;101662.05;;;17.69;84.35
24013;BME280;12220;50.194;18.948;2023-06-10T03:57:16;101667.33;;;17.72;84.34
24013;BME280;12220;50.194;18.948;2023-06-10T03:59:17;101654.21;;;17.74;84.35
24013;BME280;12220;50.194;18.948;2023-06-10T04:01:18;101664.16;;;17.77;84.42
24013;BME280;12220;50.194;18.948;2023-06-10T04:03:22;101663.02;;;17.80;84.52
24013;BME280;12220;50.194;18.948;2023-06-10T04:05:31;101662.76;;;17.83;84.60
24013;BME280;12220;50.194;18.948;2023-06-10T04:07:32;101653.41;;;17.84;84.70
24013;BME280;12220;50.194;18.948;2023-06-10T04:09:35;101654.03;;;17.87;84.79
24013;BME280;12220;50.194;18.948;2023-06-10T04:11:39;101652.93;;;17.90;84.89
24013;BME280;12220;50.194;18.948;2023-06-10T04:13:45;101660.98;;;17.93;84.96
24013;BME280;12220;50.194;18.948;2023-06-10T04:15:47;101660.70;;;17.96;84.98
24013;BME280;12220;50.194;18.948;2023-06-10T04:17:48;101663.20;;;17.99;85.00
24013;BME280;12220;50.194;18.948;2023-06-10T04:19:50;101667.60;;;18.02;85.03
24013;BME280;12220;50.194;18.948;2023-06-10T04:22:01;101663.70;;;18.04;85.09
24013;BME280;12220;50.194;18.948;2023-06-10T04:24:04;101660.92;;;18.04;85.11
24013;BME280;12220;50.194;18.948;2023-06-10T04:26:06;101660.65;;;18.07;85.24
24013;BME280;12220;50.194;18.948;2023-06-10T04:28:07;101665.92;;;18.10;85.33
24013;BME280;12220;50.194;18.948;2023-06-10T04:30:16;101668.42;;;18.14;85.37
24013;BME280;12220;50.194;18.948;2023-06-10T04:32:18;101672.70;;;18.18;85.39
24013;BME280;12220;50.194;18.948;2023-06-10T04:34:19;101666.87;;;18.21;85.41
24013;BME280;12220;50.194;18.948;2023-06-10T04:36:21;101669.36;;;18.24;85.39
24013;BME280;12220;50.194;18.948;2023-06-10T04:38:30;101671.00;;;18.26;85.37
24013;BME280;12220;50.194;18.948;2023-06-10T04:40:31;101666.32;;;18.27;85.44
24013;BME280;12220;50.194;18.948;2023-06-10T04:42:33;101666.05;;;18.30;85.50
24013;BME280;12220;50.194;18.948;2023-06-10T04:44:34;101663.00;;;18.33;85.52
24013;BME280;12220;50.194;18.948;2023-06-10T04:46:45;101666.53;;;18.35;85.50
24013;BME280;12220;50.194;18.948;2023-06-10T04:48:46;101666.25;;;18.38;85.52
24013;BME280;12220;50.194;18.948;2023-06-10T04:50:48;101667.88;;;18.41;85.50
24013;BME280;12220;50.194;18.948;2023-06-10T04:52:49;101663.06;;;18.43;85.51
24013;BME280;12220;50.194;18.948;2023-06-10T04:55:00;101670.23;;;18.45;85.45
24013;BME280;12220;50.194;18.948;2023-06-10T04:57:02;101676.52;;;18.47;85.44
24013;BME280;12220;50.194;18.948;2023-06-10T04:59:03;101677.27;;;18.50;85.56
24013;BME280;12220;50.194;18.948;2023-06-10T05:01:08;101671.73;;;18.50;85.35
24013;BME280;12220;50.194;18.948;2023-06-10T05:03:15;101675.51;;;18.49;85.46
24013;BME280;12220;50.194;18.948;2023-06-10T05:05:19;101677.27;;;18.50;85.39
24013;BME280;12220;50.194;18.948;2023-06-10T05:07:21;101668.96;;;18.50;85.41
24013;BME280;12220;50.194;18.948;2023-06-10T05:09:22;101675.23;;;18.52;85.46
24013;BME280;12220;50.194;18.948;2023-06-10T05:11:30;101679.77;;;18.53;85.55
24013;BME280;12220;50.194;18.948;2023-06-10T05:13:31;101675.99;;;18.54;85.52
24013;BME280;12220;50.194;18.948;2023-06-10T05:15:33;101454.84;;;17.21;85.32
24013;BME280;12220;50.194;18.948;2023-06-10T05:17:34;101680.64;;;18.53;85.46
24013;BME280;12220;50.194;18.948;2023-06-10T05:19:45;101682.55;;;18.53;85.50
24013;BME280;12220;50.194;18.948;2023-06-10T05:21:47;101691.73;;;18.53;85.48
24013;BME280;12220;50.194;18.948;2023-06-10T05:23:49;101682.41;;;18.54;85.54
24013;BME280;12220;50.194;18.948;2023-06-10T05:25:50;101687.82;;;18.56;85.59
24013;BME280;12220;50.194;18.948;2023-06-10T05:27:59;101693.37;;;18.56;85.60
24013;BME280;12220;50.194;18.948;2023-06-10T05:30:02;101695.27;;;18.55;85.58
24013;BME280;12220;50.194;18.948;2023-06-10T05:32:04;101690.59;;;18.56;85.52
24013;BME280;12220;50.194;18.948;2023-06-10T05:34:06;101687.82;;;18.56;85.65
24013;BME280;12220;50.194;18.948;2023-06-10T05:36:14;101692.64;;;18.54;85.50
24013;BME280;12220;50.194;18.948;2023-06-10T05:38:16;101687.20;;;18.52;85.53
24013;BME280;12220;50.194;18.948;2023-06-10T05:40:17;101689.10;;;18.52;85.63
24013;BME280;12220;50.194;18.948;2023-06-10T05:42:19;101693.64;;;18.53;85.70
24013;BME280;12220;50.194;18.948;2023-06-10T05:44:29;101696.27;;;18.54;85.79
24013;BME280;12220;50.194;18.948;2023-06-10T05:46:31;101653.09;;;18.31;85.84
24013;BME280;12220;50.194;18.948;2023-06-10T05:48:32;101695.41;;;18.54;85.86
24013;BME280;12220;50.194;18.948;2023-06-10T05:50:34;101696.14;;;18.56;85.87
24013;BME280;12220;50.194;18.948;2023-06-10T05:52:44;101711.63;;;18.58;85.87
24013;BME280;12220;50.194;18.948;2023-06-10T05:54:46;101704.31;;;18.57;85.91
24013;BME280;12220;50.194;18.948;2023-06-10T05:56:47;101705.95;;;18.60;85.82
24013;BME280;12220;50.194;18.948;2023-06-10T05:58:49;101708.58;;;18.61;85.85
24013;BME280;12220;50.194;18.948;2023-06-10T06:00:59;101708.17;;;18.66;85.89
24013;BME280;12220;50.194;18.948;2023-06-10T06:03:01;101712.57;;;18.69;85.87
24013;BME280;12220;50.194;18.948;2023-06-10T06:05:02;101702.20;;;18.71;85.87
24013;BME280;12220;50.194;18.948;2023-06-10T06:07:04;101713.78;;;18.76;85.84
24013;BME280;12220;50.194;18.948;2023-06-10T06:09:14;101708.10;;;18.77;85.99
24013;BME280;12220;50.194;18.948;2023-06-10T06:11:15;101717.28;;;18.78;85.76
24013;BME280;12220;50.194;18.948;2023-06-10T06:13:16;101713.63;;;18.77;85.68
24013;BME280;12220;50.194;18.948;2023-06-10T06:15:18;101719.92;;;18.79;85.58
24013;BME280;12220;50.194;18.948;2023-06-10T06:17:29;101719.77;;;18.81;85.62
24013;BME280;12220;50.194;18.948;2023-06-10T06:19:30;101715.13;;;18.81;85.55
24013;BME280;12220;50.194;18.948;2023-06-10T06:21:31;101715.13;;;18.81;85.57
24013;BME280;12220;50.194;18.948;2023-06-10T06:23:33;101723.45;;;18.81;85.43
24013;BME280;12220;50.194;18.948;2023-06-10T06:25:44;101727.97;;;18.82;85.33
24013;BME280;12220;50.194;18.948;2023-06-10T06:27:45;101717.90;;;18.81;85.35
24013;BME280;12220;50.194;18.948;2023-06-10T06:29:47;101728.24;;;18.79;85.25
24013;BME280;12220;50.194;18.948;2023-06-10T06:31:48;101733.21;;;18.76;85.18
24013;BME280;12220;50.194;18.948;2023-06-10T06:33:58;101731.99;;;18.69;85.24
24013;BME280;12220;50.194;18.948;2023-06-10T06:36:00;101747.88;;;18.67;85.33
24013;BME280;12220;50.194;18.948;2023-06-10T06:38:01;101748.01;;;18.65;85.43
24013;BME280;12220;50.194;18.948;2023-06-10T06:40:05;101768.48;;;18.64;85.48
24013;BME280;12220;50.194;18.948;2023-06-10T06:42:13;101751.97;;;18.62;85.38
24013;BME280;12220;50.194;18.948;2023-06-10T06:44:15;101750.34;;;18.60;85.50
24013;BME280;12220;50.194;18.948;2023-06-10T06:46:16;101755.88;;;18.60;85.52
24013;BME280;12220;50.194;18.948;2023-06-10T06:48:17;101755.26;;;18.56;85.40
24013;BME280;12220;50.194;18.948;2023-06-10T06:50:28;101757.30;;;18.54;85.40
24013;BME280;12220;50.194;18.948;2023-06-10T06:52:30;101773.08;;;18.54;85.39
24013;BME280;12220;50.194;18.948;2023-06-10T06:54:31;101768.40;;;18.54;85.44
24013;BME280;12220;50.194;18.948;2023-06-10T06:56:32;101767.52;;;18.54;85.33
24013;BME280;12220;50.194;18.948;2023-06-10T06:58:43;101791.72;;;18.52;85.32
24013;BME280;12220;50.194;18.948;2023-06-10T07:00:44;101774.63;;;18.46;85.51
24013;BME280;12220;50.194;18.948;2023-06-10T07:02:46;101771.98;;;18.45;85.58
24013;BME280;12220;50.194;18.948;2023-06-10T07:04:47;101771.08;;;18.44;85.61
24013;BME280;12220;50.194;18.948;2023-06-10T07:06:58;101774.00;;;18.43;85.62
24013;BME280;12220;50.194;18.948;2023-06-10T07:08:59;101783.32;;;18.42;85.67
24013;BME280;12220;50.194;18.948;2023-06-10T07:11:00;101774.13;;;18.41;85.79
24013;BME280;12220;50.194;18.948;2023-06-10T07:13:02;101775.13;;;18.40;85.84
24013;BME280;12220;50.194;18.948;2023-06-10T07:15:13;101770.76;;;18.38;85.78
24013;BME280;12220;50.194;18.948;2023-06-10T07:17:14;101775.55;;;18.36;85.92
24013;BME280;12220;50.194;18.948;2023-06-10T07:19:16;101776.41;;;18.36;86.06
24013;BME280;12220;50.194;18.948;2023-06-10T07:21:17;101766.21;;;18.37;86.23
24013;BME280;12220;50.194;18.948;2023-06-10T07:23:28;101773.53;;;18.38;86.49
24013;BME280;12220;50.194;18.948;2023-06-10T07:25:29;101779.95;;;18.38;86.46
24013;BME280;12220;50.194;18.948;2023-06-10T07:27:30;101778.81;;;18.41;86.61
24013;BME280;12220;50.194;18.948;2023-06-10T07:29:32;101790.50;;;18.44;86.67
24013;BME280;12220;50.194;18.948;2023-06-10T07:31:43;101782.17;;;18.44;86.96
24013;BME280;12220;50.194;18.948;2023-06-10T07:33:47;101781.17;;;18.45;87.02
24013;BME280;12220;50.194;18.948;2023-06-10T07:35:48;101781.77;;;18.49;87.12
24013;BME280;12220;50.194;18.948;2023-06-10T07:37:49;101779.77;;;18.51;87.28
24013;BME280;12220;50.194;18.948;2023-06-10T07:39:58;101785.03;;;18.54;87.40
24013;BME280;12220;50.194;18.948;2023-06-10T07:41:59;101792.22;;;18.57;87.56
24013;BME280;12220;50.194;18.948;2023-06-10T07:44:00;101777.95;;;18.61;87.55
24013;BME280;12220;50.194;18.948;2023-06-10T07:46:01;101789.77;;;18.63;87.68
24013;BME280;12220;50.194;18.948;2023-06-10T07:48:12;101792.54;;;18.63;87.65
24013;BME280;12220;50.194;18.948;2023-06-10T07:50:14;101786.98;;;18.63;87.49
24013;BME280;12220;50.194;18.948;2023-06-10T07:52:15;101787.13;;;18.62;87.77
24013;BME280;12220;50.194;18.948;2023-06-10T07:54:17;101792.54;;;18.63;87.67
24013;BME280;12220;50.194;18.948;2023-06-10T07:56:27;101787.62;;;18.67;87.72
24013;BME280;12220;50.194;18.948;2023-06-10T07:58:29;101795.66;;;18.70;87.70
24013;BME280;12220;50.194;18.948;2023-06-10T08:00:30;101782.38;;;18.74;87.67
24013;BME280;12220;50.194;18.948;2023-06-10T08:02:31;101789.57;;;18.76;87.79
24013;BME280;12220;50.194;18.948;2023-06-10T08:04:42;101786.52;;;18.79;87.89
24013;BME280;12220;50.194;18.948;2023-06-10T08:06:43;101791.05;;;18.80;87.96
24013;BME280;12220;50.194;18.948;2023-06-10T08:08:45;101797.06;;;18.86;87.98
24013;BME280;12220;50.194;18.948;2023-06-10T08:10:47;101796.57;;;18.92;88.02
24013;BME280;12220;50.194;18.948;2023-06-10T08:13:01;101797.03;;;18.97;88.15
24013;BME280;12220;50.194;18.948;2023-06-10T08:15:06;101803.05;;;19.02;88.27
24013;BME280;12220;50.194;18.948;2023-06-10T08:17:07;101799.45;;;19.11;88.23
24013;BME280;12220;50.194;18.948;2023-06-10T08:19:09;101798.89;;;19.18;88.61
24013;BME280;12220;50.194;18.948;2023-06-10T08:21:12;101809.47;;;19.24;88.50
24013;BME280;12220;50.194;18.948;2023-06-10T08:23:14;101795.74;;;19.32;88.42
24013;BME280;12220;50.194;18.948;2023-06-10T08:25:15;101790.39;;;19.40;88.40
24013;BME280;12220;50.194;18.948;2023-06-10T08:27:16;101793.74;;;19.44;88.22
24013;BME280;12220;50.194;18.948;2023-06-10T08:29:27;101794.22;;;19.49;88.09
24013;BME280;12220;50.194;18.948;2023-06-10T08:31:29;101802.99;;;19.54;88.15
24013;BME280;12220;50.194;18.948;2023-06-10T08:33:31;101796.89;;;19.60;88.11
24013;BME280;12220;50.194;18.948;2023-06-10T08:35:33;101603.12;;;18.52;87.88
24013;BME280;12220;50.194;18.948;2023-06-10T08:37:42;101802.20;;;19.73;88.21
24013;BME280;12220;50.194;18.948;2023-06-10T08:39:43;101809.71;;;19.82;88.16
24013;BME280;12220;50.194;18.948;2023-06-10T08:42:39;101812.67;;;19.91;88.32
24013;BME280;12220;50.194;18.948;2023-06-10T08:44:08;101805.23;;;20.01;88.23
24013;BME280;12220;50.194;18.948;2023-06-10T08:46:11;101804.06;;;20.13;88.19
24013;BME280;12220;50.194;18.948;2023-06-10T08:48:19;101815.20;;;20.23;87.96
24013;BME280;12220;50.194;18.948;2023-06-10T08:50:21;101802.77;;;20.27;86.97
24013;BME280;12220;50.194;18.948;2023-06-10T08:52:24;101803.04;;;20.34;86.80
24013;BME280;12220;50.194;18.948;2023-06-10T08:54:31;101800.57;;;20.41;86.83
24013;BME280;12220;50.194;18.948;2023-06-10T08:56:39;101801.74;;;20.48;86.87
24013;BME280;12220;50.194;18.948;2023-06-10T08:58:42;101793.09;;;20.51;86.84
24013;BME280;12220;50.194;18.948;2023-06-10T09:00:45;101800.13;;;20.55;86.51
24013;BME280;12220;50.194;18.948;2023-06-10T09:02:47;101787.23;;;20.54;86.38
24013;BME280;12220;50.194;18.948;2023-06-10T09:04:53;101799.09;;;20.66;86.33
24013;BME280;12220;50.194;18.948;2023-06-10T09:06:57;101798.66;;;20.70;86.21
24013;BME280;12220;50.194;18.948;2023-06-10T09:08:59;101801.74;;;20.77;86.16
24013;BME280;12220;50.194;18.948;2023-06-10T09:11:01;101802.04;;;20.84;86.13
24013;BME280;12220;50.194;18.948;2023-06-10T09:13:07;101807.00;;;20.90;86.05
24013;BME280;12220;50.194;18.948;2023-06-10T09:15:09;101807.41;;;20.95;85.96
24013;BME280;12220;50.194;18.948;2023-06-10T09:17:16;101814.13;;;21.02;85.84
24013;BME280;12220;50.194;18.948;2023-06-10T09:19:18;101812.66;;;21.08;85.69
24013;BME280;12220;50.194;18.948;2023-06-10T09:21:22;101804.75;;;21.13;84.91
24013;BME280;12220;50.194;18.948;2023-06-10T09:23:24;101807.23;;;21.16;84.63
24013;BME280;12220;50.194;18.948;2023-06-10T09:25:36;101806.91;;;21.19;84.38
24013;BME280;12220;50.194;18.948;2023-06-10T09:27:45;101812.90;;;21.24;84.62
24013;BME280;12220;50.194;18.948;2023-06-10T09:29:55;101802.19;;;21.30;84.31
24013;BME280;12220;50.194;18.948;2023-06-10T09:31:58;101807.88;;;21.38;84.36
24013;BME280;12220;50.194;18.948;2023-06-10T09:34:10;101811.23;;;21.51;84.43
24013;BME280;12220;50.194;18.948;2023-06-10T09:36:23;101804.09;;;21.67;84.50
24013;BME280;12220;50.194;18.948;2023-06-10T09:38:30;101801.69;;;21.82;84.18
24013;BME280;12220;50.194;18.948;2023-06-10T09:40:32;101800.19;;;21.87;82.55
24013;BME280;12220;50.194;18.948;2023-06-10T09:42:36;101800.59;;;21.92;81.75
24013;BME280;12220;50.194;18.948;2023-06-10T09:44:38;101803.16;;;22.04;81.31
24013;BME280;12220;50.194;18.948;2023-06-10T09:46:40;101806.60;;;22.16;81.13
24013;BME280;12220;50.194;18.948;2023-06-10T09:48:43;101797.26;;;22.25;80.35
24013;BME280;12220;50.194;18.948;2023-06-10T09:50:46;101796.52;;;22.33;80.39
24013;BME280;12220;50.194;18.948;2023-06-10T09:52:48;101795.71;;;22.40;79.68
24013;BME280;12220;50.194;18.948;2023-06-10T09:54:53;101799.04;;;22.44;78.69
24013;BME280;12220;50.194;18.948;2023-06-10T09:56:57;101597.17;;;21.37;78.77
24013;BME280;12220;50.194;18.948;2023-06-10T09:59:01;101795.63;;;22.50;78.58
24013;BME280;12220;50.194;18.948;2023-06-10T10:01:11;101795.63;;;22.50;78.06
24013;BME280;12220;50.194;18.948;2023-06-10T10:03:22;101791.41;;;22.46;76.83
24013;BME280;12220;50.194;18.948;2023-06-10T10:05:24;101802.90;;;22.43;76.56
24013;BME280;12220;50.194;18.948;2023-06-10T10:07:33;101804.26;;;22.39;76.74
24013;BME280;12220;50.194;18.948;2023-06-10T10:09:38;101800.30;;;22.32;76.97
24013;BME280;12220;50.194;18.948;2023-06-10T10:11:40;101800.63;;;22.28;77.22
24013;BME280;12220;50.194;18.948;2023-06-10T10:13:45;101809.48;;;22.24;77.21
24013;BME280;12220;50.194;18.948;2023-06-10T10:15:51;101815.38;;;22.21;77.31
24013;BME280;12220;50.194;18.948;2023-06-10T10:20:04;101800.69;;;22.19;76.79
24013;BME280;12220;50.194;18.948;2023-06-10T10:22:10;101806.11;;;22.20;76.57
24013;BME280;12220;50.194;18.948;2023-06-10T10:24:18;101803.16;;;22.22;76.53
24013;BME280;12220;50.194;18.948;2023-06-10T10:26:30;101801.27;;;22.22;76.62
24013;BME280;12220;50.194;18.948;2023-06-10T10:28:39;101805.95;;;22.22;76.60
24013;BME280;12220;50.194;18.948;2023-06-10T10:30:45;101796.88;;;22.20;76.50
24013;BME280;12220;50.194;18.948;2023-06-10T10:35:08;101790.55;;;22.18;75.97
24013;BME280;12220;50.194;18.948;2023-06-10T10:37:10;101784.11;;;22.17;75.97
24013;BME280;12220;50.194;18.948;2023-06-10T10:39:12;101789.70;;;22.17;75.98
24013;BME280;12220;50.194;18.948;2023-06-10T10:41:14;101791.62;;;22.17;75.97
24013;BME280;12220;50.194;18.948;2023-06-10T10:43:16;101796.46;;;22.15;75.35
24013;BME280;12220;50.194;18.948;2023-06-10T10:45:23;101791.78;;;22.15;75.00
24013;BME280;12220;50.194;18.948;2023-06-10T10:47:27;101789.31;;;22.12;74.53
24013;BME280;12220;50.194;18.948;2023-06-10T10:49:35;101794.63;;;22.05;72.72
24013;BME280;12220;50.194;18.948;2023-06-10T10:56:16;101785.30;;;21.97;71.93